Current Conditions
Partly Cloudy
Conditions



Pressure
29.87 (inHG) - 1011.52 (mb)
Visibility

10.0 (miles) - 16.1 (km)
Temperature
81  °F
Temperature
45  °F
Dewpoint
28  %
 Humidity
Wind Speed
0  mph
0  kts
0  km/h
0  m/s
Wind Direction
N
45°
E
90°
135°
S
180°
225°
W
270°
315°
Calm

Due North
Airport Data
MMLP
Manuel Márquez de León International Airport
Metar :MMLP 181540Z 00000KT 10SM FEW220 27/07 A2987 RMK 8/001 HZY
Mon 18th April 09:40 am
Raw Metar Info
Raw METAR is the most common format in the world for the transmission of observational weather data. It is highly standardized through the International Civil Aviation Organization (ICAO), which allows it to be understood throughout most of the world.
API Info
Data Provided by
https://www.checkwx.com/weather/MMLP

Aviation Weather providing METAR, TAF, AIRMET, SIGMET and OUTLOOK Weather Reports
© Info
CSS/SVG/PHP scripts were developed by weather34 for use in the weather34 template © 2015-2022

Guide Info provided by Metar-Wikipedia